sensor_id;sensor_type;location;lat;lon;timestamp;temperature;humidity
20526;DHT22;10421;49.142;9.232;2022-12-18T00:02:20;-2.10;75.50
20526;DHT22;10421;49.142;9.232;2022-12-18T00:04:47;-2.10;75.90
20526;DHT22;10421;49.142;9.232;2022-12-18T00:07:14;-2.20;75.00
20526;DHT22;10421;49.142;9.232;2022-12-18T00:09:41;-2.20;75.00
20526;DHT22;10421;49.142;9.232;2022-12-18T00:12:08;-2.20;75.20
20526;DHT22;10421;49.142;9.232;2022-12-18T00:14:35;-2.20;75.10
20526;DHT22;10421;49.142;9.232;2022-12-18T00:17:03;-2.20;75.10
20526;DHT22;10421;49.142;9.232;2022-12-18T00:19:30;-2.20;75.00
20526;DHT22;10421;49.142;9.232;2022-12-18T00:21:57;-2.20;74.90
20526;DHT22;10421;49.142;9.232;2022-12-18T00:24:24;-2.20;74.70
20526;DHT22;10421;49.142;9.232;2022-12-18T00:26:51;-2.20;74.70
20526;DHT22;10421;49.142;9.232;2022-12-18T00:29:18;-2.30;74.60
20526;DHT22;10421;49.142;9.232;2022-12-18T00:31:45;-2.20;74.60
20526;DHT22;10421;49.142;9.232;2022-12-18T00:34:13;-2.20;74.60
20526;DHT22;10421;49.142;9.232;2022-12-18T00:36:40;-2.20;74.60
20526;DHT22;10421;49.142;9.232;2022-12-18T00:39:09;-2.20;74.60
20526;DHT22;10421;49.142;9.232;2022-12-18T00:41:36;-2.30;74.60
20526;DHT22;10421;49.142;9.232;2022-12-18T00:44:35;-2.20;74.80
20526;DHT22;10421;49.142;9.232;2022-12-18T00:47:02;-2.30;74.80
20526;DHT22;10421;49.142;9.232;2022-12-18T00:49:30;-2.30;75.30
20526;DHT22;10421;49.142;9.232;2022-12-18T00:51:56;-2.20;74.70
20526;DHT22;10421;49.142;9.232;2022-12-18T00:54:23;-2.20;74.50
20526;DHT22;10421;49.142;9.232;2022-12-18T00:56:50;-2.20;74.50
20526;DHT22;10421;49.142;9.232;2022-12-18T00:59:18;-2.20;74.40
20526;DHT22;10421;49.142;9.232;2022-12-18T01:01:45;-2.30;74.30
20526;DHT22;10421;49.142;9.232;2022-12-18T01:04:12;-2.30;74.40
20526;DHT22;10421;49.142;9.232;2022-12-18T01:06:40;-2.30;74.60
20526;DHT22;10421;49.142;9.232;2022-12-18T01:09:07;-2.30;74.60
20526;DHT22;10421;49.142;9.232;2022-12-18T01:11:34;-2.20;74.60
20526;DHT22;10421;49.142;9.232;2022-12-18T01:14:01;-2.30;74.30
20526;DHT22;10421;49.142;9.232;2022-12-18T01:16:28;-2.30;74.30
20526;DHT22;10421;49.142;9.232;2022-12-18T01:18:55;-2.30;74.20
20526;DHT22;10421;49.142;9.232;2022-12-18T01:21:22;-2.30;74.20
20526;DHT22;10421;49.142;9.232;2022-12-18T01:23:53;-2.40;74.30
20526;DHT22;10421;49.142;9.232;2022-12-18T01:26:20;-2.40;74.40
20526;DHT22;10421;49.142;9.232;2022-12-18T01:28:47;-2.40;74.50
20526;DHT22;10421;49.142;9.232;2022-12-18T01:31:17;-2.40;74.50
20526;DHT22;10421;49.142;9.232;2022-12-18T01:33:44;-2.40;74.30
20526;DHT22;10421;49.142;9.232;2022-12-18T01:36:18;-2.40;74.40
20526;DHT22;10421;49.142;9.232;2022-12-18T01:38:46;-2.50;74.40
20526;DHT22;10421;49.142;9.232;2022-12-18T01:41:16;-2.50;74.60
20526;DHT22;10421;49.142;9.232;2022-12-18T01:43:46;-2.40;74.80
20526;DHT22;10421;49.142;9.232;2022-12-18T01:46:13;-2.40;74.80
20526;DHT22;10421;49.142;9.232;2022-12-18T01:48:41;-2.40;74.70
20526;DHT22;10421;49.142;9.232;2022-12-18T01:51:10;-2.30;74.70
20526;DHT22;10421;49.142;9.232;2022-12-18T01:53:39;-2.40;74.60
20526;DHT22;10421;49.142;9.232;2022-12-18T01:56:07;-2.30;74.70
20526;DHT22;10421;49.142;9.232;2022-12-18T01:58:41;-2.30;74.60
20526;DHT22;10421;49.142;9.232;2022-12-18T02:01:09;-2.40;74.40
20526;DHT22;10421;49.142;9.232;2022-12-18T02:03:36;-2.40;74.30
20526;DHT22;10421;49.142;9.232;2022-12-18T02:06:07;-2.50;74.30
20526;DHT22;10421;49.142;9.232;2022-12-18T02:08:40;-2.40;74.50
20526;DHT22;10421;49.142;9.232;2022-12-18T02:11:17;-2.50;74.50
20526;DHT22;10421;49.142;9.232;2022-12-18T02:13:53;-2.40;74.60
20526;DHT22;10421;49.142;9.232;2022-12-18T02:16:24;-2.40;74.70
20526;DHT22;10421;49.142;9.232;2022-12-18T02:18:57;-2.40;74.60
20526;DHT22;10421;49.142;9.232;2022-12-18T02:21:32;-2.40;74.50
20526;DHT22;10421;49.142;9.232;2022-12-18T02:24:11;-2.40;74.50
20526;DHT22;10421;49.142;9.232;2022-12-18T02:26:44;-2.40;74.30
20526;DHT22;10421;49.142;9.232;2022-12-18T02:29:17;-2.50;74.20
20526;DHT22;10421;49.142;9.232;2022-12-18T02:31:50;-2.60;74.30
20526;DHT22;10421;49.142;9.232;2022-12-18T02:34:18;-2.60;74.40
20526;DHT22;10421;49.142;9.232;2022-12-18T02:36:46;-2.60;74.60
20526;DHT22;10421;49.142;9.232;2022-12-18T02:39:15;-2.60;74.60
20526;DHT22;10421;49.142;9.232;2022-12-18T02:41:44;-2.60;74.70
20526;DHT22;10421;49.142;9.232;2022-12-18T02:44:13;-2.50;74.80
20526;DHT22;10421;49.142;9.232;2022-12-18T02:46:42;-2.50;74.60
20526;DHT22;10421;49.142;9.232;2022-12-18T02:49:18;-2.50;74.40
20526;DHT22;10421;49.142;9.232;2022-12-18T02:51:51;-2.50;74.40
20526;DHT22;10421;49.142;9.232;2022-12-18T02:54:32;-2.50;74.60
20526;DHT22;10421;49.142;9.232;2022-12-18T02:57:11;-2.50;74.70
20526;DHT22;10421;49.142;9.232;2022-12-18T02:59:45;-2.50;74.70
20526;DHT22;10421;49.142;9.232;2022-12-18T03:02:20;-2.50;74.50
20526;DHT22;10421;49.142;9.232;2022-12-18T03:04:52;-2.50;74.40
20526;DHT22;10421;49.142;9.232;2022-12-18T03:07:35;-2.50;74.40
20526;DHT22;10421;49.142;9.232;2022-12-18T03:10:05;-2.60;74.50
20526;DHT22;10421;49.142;9.232;2022-12-18T03:12:37;-2.60;74.50
20526;DHT22;10421;49.142;9.232;2022-12-18T03:15:08;-2.60;74.60
20526;DHT22;10421;49.142;9.232;2022-12-18T03:17:38;-2.50;74.40
20526;DHT22;10421;49.142;9.232;2022-12-18T03:20:10;-2.60;74.20
20526;DHT22;10421;49.142;9.232;2022-12-18T03:22:38;-2.60;74.30
20526;DHT22;10421;49.142;9.232;2022-12-18T03:25:09;-2.60;74.30
20526;DHT22;10421;49.142;9.232;2022-12-18T03:27:40;-2.60;74.30
20526;DHT22;10421;49.142;9.232;2022-12-18T03:30:11;-2.60;74.30
20526;DHT22;10421;49.142;9.232;2022-12-18T03:32:41;-2.60;74.20
20526;DHT22;10421;49.142;9.232;2022-12-18T03:35:11;-2.60;74.20
20526;DHT22;10421;49.142;9.232;2022-12-18T03:37:39;-2.60;74.00
20526;DHT22;10421;49.142;9.232;2022-12-18T03:40:07;-2.60;73.90
20526;DHT22;10421;49.142;9.232;2022-12-18T03:42:41;-2.70;74.10
20526;DHT22;10421;49.142;9.232;2022-12-18T03:45:16;-2.70;74.50
20526;DHT22;10421;49.142;9.232;2022-12-18T03:47:57;-2.80;74.60
20526;DHT22;10421;49.142;9.232;2022-12-18T03:50:34;-2.80;74.80
20526;DHT22;10421;49.142;9.232;2022-12-18T03:53:09;-2.80;75.00
20526;DHT22;10421;49.142;9.232;2022-12-18T03:55:41;-2.70;75.10
20526;DHT22;10421;49.142;9.232;2022-12-18T03:58:13;-2.70;75.10
20526;DHT22;10421;49.142;9.232;2022-12-18T04:00:43;-2.70;74.90
20526;DHT22;10421;49.142;9.232;2022-12-18T04:03:11;-2.70;74.80
20526;DHT22;10421;49.142;9.232;2022-12-18T04:05:38;-2.70;74.60
20526;DHT22;10421;49.142;9.232;2022-12-18T04:08:05;-2.70;74.30
20526;DHT22;10421;49.142;9.232;2022-12-18T04:10:32;-2.70;74.20
20526;DHT22;10421;49.142;9.232;2022-12-18T04:12:59;-2.60;74.20
20526;DHT22;10421;49.142;9.232;2022-12-18T04:15:27;-2.70;74.00
20526;DHT22;10421;49.142;9.232;2022-12-18T04:17:53;-2.70;73.90
20526;DHT22;10421;49.142;9.232;2022-12-18T04:20:20;-2.70;74.00
20526;DHT22;10421;49.142;9.232;2022-12-18T04:22:47;-2.70;73.90
20526;DHT22;10421;49.142;9.232;2022-12-18T04:25:14;-2.70;73.80
20526;DHT22;10421;49.142;9.232;2022-12-18T04:27:41;-2.70;73.70
20526;DHT22;10421;49.142;9.232;2022-12-18T04:30:08;-2.80;73.60
20526;DHT22;10421;49.142;9.232;2022-12-18T04:32:36;-2.80;73.70
20526;DHT22;10421;49.142;9.232;2022-12-18T04:35:04;-2.80;73.80
20526;DHT22;10421;49.142;9.232;2022-12-18T04:37:35;-2.80;73.80
20526;DHT22;10421;49.142;9.232;2022-12-18T04:40:02;-2.80;73.70
20526;DHT22;10421;49.142;9.232;2022-12-18T04:42:29;-2.90;73.50
20526;DHT22;10421;49.142;9.232;2022-12-18T04:44:56;-2.90;73.40
20526;DHT22;10421;49.142;9.232;2022-12-18T04:47:23;-2.90;73.40
20526;DHT22;10421;49.142;9.232;2022-12-18T04:49:51;-2.90;73.40
20526;DHT22;10421;49.142;9.232;2022-12-18T04:52:18;-2.90;73.50
20526;DHT22;10421;49.142;9.232;2022-12-18T04:54:44;-3.00;73.40
20526;DHT22;10421;49.142;9.232;2022-12-18T04:57:11;-3.00;73.20
20526;DHT22;10421;49.142;9.232;2022-12-18T04:59:38;-3.00;73.10
20526;DHT22;10421;49.142;9.232;2022-12-18T05:02:04;-3.20;73.20
20526;DHT22;10421;49.142;9.232;2022-12-18T05:04:31;-3.20;73.60
20526;DHT22;10421;49.142;9.232;2022-12-18T05:06:59;-3.20;73.80
20526;DHT22;10421;49.142;9.232;2022-12-18T05:09:26;-3.30;73.90
20526;DHT22;10421;49.142;9.232;2022-12-18T05:11:53;-3.30;74.20
20526;DHT22;10421;49.142;9.232;2022-12-18T05:14:20;-3.40;74.30
20526;DHT22;10421;49.142;9.232;2022-12-18T05:16:46;-3.40;74.50
20526;DHT22;10421;49.142;9.232;2022-12-18T05:19:13;-3.40;74.70
20526;DHT22;10421;49.142;9.232;2022-12-18T05:21:40;-3.40;74.70
20526;DHT22;10421;49.142;9.232;2022-12-18T05:24:08;-3.40;74.90
20526;DHT22;10421;49.142;9.232;2022-12-18T05:26:35;-3.40;75.00
20526;DHT22;10421;49.142;9.232;2022-12-18T05:29:02;-3.30;75.00
20526;DHT22;10421;49.142;9.232;2022-12-18T05:31:28;-3.30;75.00
20526;DHT22;10421;49.142;9.232;2022-12-18T05:33:55;-3.30;75.00
20526;DHT22;10421;49.142;9.232;2022-12-18T05:36:22;-3.30;75.10
20526;DHT22;10421;49.142;9.232;2022-12-18T05:38:49;-3.30;75.10
20526;DHT22;10421;49.142;9.232;2022-12-18T05:41:17;-3.20;75.20
20526;DHT22;10421;49.142;9.232;2022-12-18T05:43:43;-3.20;75.10
20526;DHT22;10421;49.142;9.232;2022-12-18T05:46:13;-3.20;75.10
20526;DHT22;10421;49.142;9.232;2022-12-18T05:48:40;-3.10;75.10
20526;DHT22;10421;49.142;9.232;2022-12-18T05:51:08;-3.20;74.80
20526;DHT22;10421;49.142;9.232;2022-12-18T05:53:36;-3.10;74.70
20526;DHT22;10421;49.142;9.232;2022-12-18T05:56:05;-3.10;74.60
20526;DHT22;10421;49.142;9.232;2022-12-18T05:58:34;-3.10;75.00
20526;DHT22;10421;49.142;9.232;2022-12-18T06:01:07;-3.10;74.10
20526;DHT22;10421;49.142;9.232;2022-12-18T06:03:34;-3.20;73.90
20526;DHT22;10421;49.142;9.232;2022-12-18T06:06:01;-3.20;74.00
20526;DHT22;10421;49.142;9.232;2022-12-18T06:08:28;-3.20;74.00
20526;DHT22;10421;49.142;9.232;2022-12-18T06:10:54;-3.30;74.00
20526;DHT22;10421;49.142;9.232;2022-12-18T06:13:21;-3.30;74.00
20526;DHT22;10421;49.142;9.232;2022-12-18T06:15:49;-3.30;73.90
20526;DHT22;10421;49.142;9.232;2022-12-18T06:18:16;-3.30;73.90
20526;DHT22;10421;49.142;9.232;2022-12-18T06:20:43;-3.30;73.90
20526;DHT22;10421;49.142;9.232;2022-12-18T06:23:10;-3.20;73.90
20526;DHT22;10421;49.142;9.232;2022-12-18T06:25:38;-3.20;73.80
20526;DHT22;10421;49.142;9.232;2022-12-18T06:28:05;-3.30;73.60
20526;DHT22;10421;49.142;9.232;2022-12-18T06:30:32;-3.30;73.60
20526;DHT22;10421;49.142;9.232;2022-12-18T06:33:00;-3.30;73.70
20526;DHT22;10421;49.142;9.232;2022-12-18T06:35:27;-3.30;73.90
20526;DHT22;10421;49.142;9.232;2022-12-18T06:37:53;-3.40;73.90
20526;DHT22;10421;49.142;9.232;2022-12-18T06:40:20;-3.30;74.10
20526;DHT22;10421;49.142;9.232;2022-12-18T06:42:47;-3.30;74.10
20526;DHT22;10421;49.142;9.232;2022-12-18T06:45:14;-3.30;74.20
20526;DHT22;10421;49.142;9.232;2022-12-18T06:47:41;-3.30;73.90
20526;DHT22;10421;49.142;9.232;2022-12-18T06:50:09;-3.30;73.90
20526;DHT22;10421;49.142;9.232;2022-12-18T06:52:36;-3.40;73.80
20526;DHT22;10421;49.142;9.232;2022-12-18T06:55:05;-3.40;73.90
20526;DHT22;10421;49.142;9.232;2022-12-18T06:57:35;-3.30;73.90
20526;DHT22;10421;49.142;9.232;2022-12-18T07:00:03;-3.40;73.80
20526;DHT22;10421;49.142;9.232;2022-12-18T07:02:31;-3.40;73.90
20526;DHT22;10421;49.142;9.232;2022-12-18T07:04:58;-3.40;74.00
20526;DHT22;10421;49.142;9.232;2022-12-18T07:07:26;-3.40;74.00
20526;DHT22;10421;49.142;9.232;2022-12-18T07:09:53;-3.40;74.00
20526;DHT22;10421;49.142;9.232;2022-12-18T07:12:19;-3.30;74.00
20526;DHT22;10421;49.142;9.232;2022-12-18T07:14:46;-3.30;74.00
20526;DHT22;10421;49.142;9.232;2022-12-18T07:17:13;-3.30;74.00
20526;DHT22;10421;49.142;9.232;2022-12-18T07:19:40;-3.40;73.90
20526;DHT22;10421;49.142;9.232;2022-12-18T07:22:06;-3.30;74.10
20526;DHT22;10421;49.142;9.232;2022-12-18T07:24:34;-3.30;74.20
20526;DHT22;10421;49.142;9.232;2022-12-18T07:27:01;-3.30;74.20
20526;DHT22;10421;49.142;9.232;2022-12-18T07:29:28;-3.30;74.40
20526;DHT22;10421;49.142;9.232;2022-12-18T07:31:55;-3.30;74.50
20526;DHT22;10421;49.142;9.232;2022-12-18T07:34:22;-3.20;74.70
20526;DHT22;10421;49.142;9.232;2022-12-18T07:36:48;-3.20;74.80
20526;DHT22;10421;49.142;9.232;2022-12-18T07:39:15;-3.20;74.80
20526;DHT22;10421;49.142;9.232;2022-12-18T07:41:43;-3.10;75.00
20526;DHT22;10421;49.142;9.232;2022-12-18T07:44:30;-3.10;75.00
20526;DHT22;10421;49.142;9.232;2022-12-18T07:46:57;-3.00;75.20
20526;DHT22;10421;49.142;9.232;2022-12-18T07:49:24;-3.00;75.30
20526;DHT22;10421;49.142;9.232;2022-12-18T07:51:50;-3.00;75.40
20526;DHT22;10421;49.142;9.232;2022-12-18T07:54:17;-3.00;75.60
20526;DHT22;10421;49.142;9.232;2022-12-18T07:56:45;-3.00;75.80
20526;DHT22;10421;49.142;9.232;2022-12-18T07:59:12;-2.90;76.20
20526;DHT22;10421;49.142;9.232;2022-12-18T08:01:39;-2.90;76.40
20526;DHT22;10421;49.142;9.232;2022-12-18T08:04:07;-2.80;76.50
20526;DHT22;10421;49.142;9.232;2022-12-18T08:06:34;-2.70;76.60
20526;DHT22;10421;49.142;9.232;2022-12-18T08:09:02;-2.60;76.70
20526;DHT22;10421;49.142;9.232;2022-12-18T08:11:29;-2.60;76.80
20526;DHT22;10421;49.142;9.232;2022-12-18T08:13:57;-2.50;76.90
20526;DHT22;10421;49.142;9.232;2022-12-18T08:16:25;-2.40;77.00
20526;DHT22;10421;49.142;9.232;2022-12-18T08:18:56;-2.30;77.00
20526;DHT22;10421;49.142;9.232;2022-12-18T08:21:25;-2.10;78.00
20526;DHT22;10421;49.142;9.232;2022-12-18T08:23:57;-1.60;79.90
20526;DHT22;10421;49.142;9.232;2022-12-18T08:26:25;-0.80;78.70
20526;DHT22;10421;49.142;9.232;2022-12-18T08:28:53;0.10;77.40
20526;DHT22;10421;49.142;9.232;2022-12-18T08:31:22;1.00;74.70
20526;DHT22;10421;49.142;9.232;2022-12-18T08:33:51;2.10;72.60
20526;DHT22;10421;49.142;9.232;2022-12-18T08:36:19;3.10;69.20
20526;DHT22;10421;49.142;9.232;2022-12-18T08:38:47;3.70;66.60
20526;DHT22;10421;49.142;9.232;2022-12-18T08:41:15;4.30;63.60
20526;DHT22;10421;49.142;9.232;2022-12-18T08:43:43;5.00;61.60
20526;DHT22;10421;49.142;9.232;2022-12-18T08:46:34;5.60;59.20
20526;DHT22;10421;49.142;9.232;2022-12-18T08:49:01;6.00;57.80
20526;DHT22;10421;49.142;9.232;2022-12-18T08:51:28;6.30;57.00
20526;DHT22;10421;49.142;9.232;2022-12-18T08:53:56;6.50;56.50
20526;DHT22;10421;49.142;9.232;2022-12-18T08:56:23;6.90;56.00
20526;DHT22;10421;49.142;9.232;2022-12-18T08:58:51;7.20;54.70
20526;DHT22;10421;49.142;9.232;2022-12-18T09:01:19;7.50;53.60
20526;DHT22;10421;49.142;9.232;2022-12-18T09:03:48;8.00;53.20
20526;DHT22;10421;49.142;9.232;2022-12-18T09:06:19;8.70;52.00
20526;DHT22;10421;49.142;9.232;2022-12-18T09:08:46;9.40;50.50
20526;DHT22;10421;49.142;9.232;2022-12-18T09:11:15;10.10;48.00
20526;DHT22;10421;49.142;9.232;2022-12-18T09:13:45;10.80;46.60
20526;DHT22;10421;49.142;9.232;2022-12-18T09:16:12;11.70;45.50
20526;DHT22;10421;49.142;9.232;2022-12-18T09:18:41;12.40;43.70
20526;DHT22;10421;49.142;9.232;2022-12-18T09:21:11;13.00;41.90
20526;DHT22;10421;49.142;9.232;2022-12-18T09:23:38;13.60;41.20
20526;DHT22;10421;49.142;9.232;2022-12-18T09:26:05;14.00;40.30
20526;DHT22;10421;49.142;9.232;2022-12-18T09:28:32;14.40;39.80
20526;DHT22;10421;49.142;9.232;2022-12-18T09:31:03;14.60;37.50
20526;DHT22;10421;49.142;9.232;2022-12-18T09:33:30;14.60;37.50
20526;DHT22;10421;49.142;9.232;2022-12-18T09:35:57;14.70;36.60
20526;DHT22;10421;49.142;9.232;2022-12-18T09:38:25;14.90;36.50
20526;DHT22;10421;49.142;9.232;2022-12-18T09:40:56;15.00;36.10
20526;DHT22;10421;49.142;9.232;2022-12-18T09:43:29;15.30;36.00
20526;DHT22;10421;49.142;9.232;2022-12-18T09:46:01;15.50;35.40
20526;DHT22;10421;49.142;9.232;2022-12-18T09:48:32;15.80;34.90
20526;DHT22;10421;49.142;9.232;2022-12-18T09:51:04;15.90;34.70
20526;DHT22;10421;49.142;9.232;2022-12-18T09:53:37;16.00;34.40
20526;DHT22;10421;49.142;9.232;2022-12-18T09:56:10;16.40;34.40
20526;DHT22;10421;49.142;9.232;2022-12-18T09:58:43;16.70;33.90
20526;DHT22;10421;49.142;9.232;2022-12-18T10:01:15;17.00;33.40
20526;DHT22;10421;49.142;9.232;2022-12-18T10:03:44;17.20;33.00
20526;DHT22;10421;49.142;9.232;2022-12-18T10:06:13;17.50;32.80
20526;DHT22;10421;49.142;9.232;2022-12-18T10:08:46;17.70;32.60
20526;DHT22;10421;49.142;9.232;2022-12-18T10:11:43;17.90;32.10
20526;DHT22;10421;49.142;9.232;2022-12-18T10:14:20;17.90;31.70
20526;DHT22;10421;49.142;9.232;2022-12-18T10:16:57;18.00;31.90
20526;DHT22;10421;49.142;9.232;2022-12-18T10:19:35;18.00;31.70
20526;DHT22;10421;49.142;9.232;2022-12-18T10:22:11;18.10;31.50
20526;DHT22;10421;49.142;9.232;2022-12-18T10:24:50;18.20;31.50
20526;DHT22;10421;49.142;9.232;2022-12-18T10:27:23;18.30;31.30
20526;DHT22;10421;49.142;9.232;2022-12-18T10:29:51;18.40;31.10
20526;DHT22;10421;49.142;9.232;2022-12-18T10:32:19;18.40;31.10
20526;DHT22;10421;49.142;9.232;2022-12-18T10:34:51;18.50;31.20
20526;DHT22;10421;49.142;9.232;2022-12-18T10:37:20;18.60;30.80
20526;DHT22;10421;49.142;9.232;2022-12-18T10:40:06;18.70;30.70
20526;DHT22;10421;49.142;9.232;2022-12-18T10:42:34;18.80;30.50
20526;DHT22;10421;49.142;9.232;2022-12-18T10:45:02;19.10;30.50
20526;DHT22;10421;49.142;9.232;2022-12-18T10:47:30;19.20;30.20
20526;DHT22;10421;49.142;9.232;2022-12-18T10:49:59;19.30;30.00
20526;DHT22;10421;49.142;9.232;2022-12-18T10:52:28;19.30;30.00
20526;DHT22;10421;49.142;9.232;2022-12-18T10:54:58;19.10;30.00
20526;DHT22;10421;49.142;9.232;2022-12-18T10:57:33;18.80;30.00
20526;DHT22;10421;49.142;9.232;2022-12-18T11:00:18;18.50;30.10
20526;DHT22;10421;49.142;9.232;2022-12-18T11:02:46;18.30;30.60
20526;DHT22;10421;49.142;9.232;2022-12-18T11:05:27;17.80;30.50
20526;DHT22;10421;49.142;9.232;2022-12-18T11:07:54;17.20;31.10
20526;DHT22;10421;49.142;9.232;2022-12-18T11:10:28;16.80;31.50
20526;DHT22;10421;49.142;9.232;2022-12-18T11:13:12;16.40;32.00
20526;DHT22;10421;49.142;9.232;2022-12-18T11:15:40;16.00;32.10
20526;DHT22;10421;49.142;9.232;2022-12-18T11:18:16;15.50;32.60
20526;DHT22;10421;49.142;9.232;2022-12-18T11:20:50;15.10;33.30
20526;DHT22;10421;49.142;9.232;2022-12-18T11:23:19;14.90;33.90
20526;DHT22;10421;49.142;9.232;2022-12-18T11:25:53;14.70;33.60
20526;DHT22;10421;49.142;9.232;2022-12-18T11:28:35;14.70;34.00
20526;DHT22;10421;49.142;9.232;2022-12-18T11:31:18;14.90;34.20
20526;DHT22;10421;49.142;9.232;2022-12-18T11:33:50;15.10;34.10
20526;DHT22;10421;49.142;9.232;2022-12-18T11:36:19;15.40;34.10
20526;DHT22;10421;49.142;9.232;2022-12-18T11:38:47;15.70;33.90
20526;DHT22;10421;49.142;9.232;2022-12-18T11:41:21;16.00;34.30
20526;DHT22;10421;49.142;9.232;2022-12-18T11:44:11;16.30;33.80
20526;DHT22;10421;49.142;9.232;2022-12-18T11:46:43;16.40;33.40
20526;DHT22;10421;49.142;9.232;2022-12-18T11:49:15;16.40;33.50
20526;DHT22;10421;49.142;9.232;2022-12-18T11:51:49;16.30;33.50
20526;DHT22;10421;49.142;9.232;2022-12-18T11:54:17;16.10;33.60
20526;DHT22;10421;49.142;9.232;2022-12-18T11:56:49;15.80;34.30
20526;DHT22;10421;49.142;9.232;2022-12-18T11:59:25;15.40;34.60
20526;DHT22;10421;49.142;9.232;2022-12-18T12:01:59;15.30;35.60
20526;DHT22;10421;49.142;9.232;2022-12-18T12:04:56;15.20;35.10
20526;DHT22;10421;49.142;9.232;2022-12-18T12:07:36;15.10;35.00
20526;DHT22;10421;49.142;9.232;2022-12-18T12:10:18;14.90;35.10
20526;DHT22;10421;49.142;9.232;2022-12-18T12:13:01;14.60;35.20
20526;DHT22;10421;49.142;9.232;2022-12-18T12:15:34;14.30;36.30
20526;DHT22;10421;49.142;9.232;2022-12-18T12:18:13;13.90;35.90
20526;DHT22;10421;49.142;9.232;2022-12-18T12:20:51;13.40;36.40
20526;DHT22;10421;49.142;9.232;2022-12-18T12:23:28;13.00;37.10
20526;DHT22;10421;49.142;9.232;2022-12-18T12:26:02;12.50;37.50
20526;DHT22;10421;49.142;9.232;2022-12-18T12:28:52;12.10;38.00
20526;DHT22;10421;49.142;9.232;2022-12-18T12:34:22;11.40;39.10
20526;DHT22;10421;49.142;9.232;2022-12-18T12:37:03;11.00;39.60
20526;DHT22;10421;49.142;9.232;2022-12-18T12:39:37;10.70;40.00
20526;DHT22;10421;49.142;9.232;2022-12-18T12:42:12;10.30;40.60
20526;DHT22;10421;49.142;9.232;2022-12-18T12:45:04;10.00;41.20
20526;DHT22;10421;49.142;9.232;2022-12-18T12:47:37;9.70;42.50
20526;DHT22;10421;49.142;9.232;2022-12-18T12:50:11;9.50;42.90
20526;DHT22;10421;49.142;9.232;2022-12-18T12:52:42;9.30;43.40
20526;DHT22;10421;49.142;9.232;2022-12-18T12:55:15;9.10;43.70
20526;DHT22;10421;49.142;9.232;2022-12-18T12:57:46;8.90;44.20
20526;DHT22;10421;49.142;9.232;2022-12-18T13:00:18;8.80;44.60
20526;DHT22;10421;49.142;9.232;2022-12-18T13:02:51;8.60;45.20
20526;DHT22;10421;49.142;9.232;2022-12-18T13:05:25;8.40;45.50
20526;DHT22;10421;49.142;9.232;2022-12-18T13:07:56;8.20;45.80
20526;DHT22;10421;49.142;9.232;2022-12-18T13:10:33;8.20;47.00
20526;DHT22;10421;49.142;9.232;2022-12-18T13:13:02;8.10;46.80
20526;DHT22;10421;49.142;9.232;2022-12-18T13:15:34;8.00;47.40
20526;DHT22;10421;49.142;9.232;2022-12-18T13:18:17;7.90;48.00
20526;DHT22;10421;49.142;9.232;2022-12-18T13:20:45;7.80;48.00
20526;DHT22;10421;49.142;9.232;2022-12-18T13:23:25;7.70;48.10
20526;DHT22;10421;49.142;9.232;2022-12-18T13:25:54;7.60;48.30
20526;DHT22;10421;49.142;9.232;2022-12-18T13:28:22;7.50;48.50
20526;DHT22;10421;49.142;9.232;2022-12-18T13:30:56;7.40;48.70
20526;DHT22;10421;49.142;9.232;2022-12-18T13:33:41;7.30;49.10
20526;DHT22;10421;49.142;9.232;2022-12-18T13:36:13;7.20;49.40
20526;DHT22;10421;49.142;9.232;2022-12-18T13:38:41;7.20;49.50
20526;DHT22;10421;49.142;9.232;2022-12-18T13:41:23;7.10;49.70
20526;DHT22;10421;49.142;9.232;2022-12-18T13:43:51;7.10;50.10
20526;DHT22;10421;49.142;9.232;2022-12-18T13:46:25;7.00;50.30
20526;DHT22;10421;49.142;9.232;2022-12-18T13:48:59;6.90;50.50
20526;DHT22;10421;49.142;9.232;2022-12-18T13:51:28;6.80;50.60
20526;DHT22;10421;49.142;9.232;2022-12-18T13:54:00;6.70;51.00
20526;DHT22;10421;49.142;9.232;2022-12-18T13:56:28;6.70;51.30
20526;DHT22;10421;49.142;9.232;2022-12-18T13:59:16;6.60;51.90
20526;DHT22;10421;49.142;9.232;2022-12-18T14:01:51;6.60;52.90
20526;DHT22;10421;49.142;9.232;2022-12-18T14:04:27;6.60;53.10
20526;DHT22;10421;49.142;9.232;2022-12-18T14:06:58;6.60;53.40
20526;DHT22;10421;49.142;9.232;2022-12-18T14:09:30;6.60;53.30
20526;DHT22;10421;49.142;9.232;2022-12-18T14:11:58;6.60;53.30
20526;DHT22;10421;49.142;9.232;2022-12-18T14:14:42;6.50;53.40
20526;DHT22;10421;49.142;9.232;2022-12-18T14:17:11;6.50;53.50
20526;DHT22;10421;49.142;9.232;2022-12-18T14:19:42;6.50;53.50
20526;DHT22;10421;49.142;9.232;2022-12-18T14:22:14;6.50;53.60
20526;DHT22;10421;49.142;9.232;2022-12-18T14:24:42;6.40;53.80
20526;DHT22;10421;49.142;9.232;2022-12-18T14:27:20;6.40;53.80
20526;DHT22;10421;49.142;9.232;2022-12-18T14:29:47;6.30;53.80
20526;DHT22;10421;49.142;9.232;2022-12-18T14:32:17;6.20;53.80
20526;DHT22;10421;49.142;9.232;2022-12-18T14:34:45;6.20;54.30
20526;DHT22;10421;49.142;9.232;2022-12-18T14:37:14;6.10;54.50
20526;DHT22;10421;49.142;9.232;2022-12-18T14:39:52;6.00;54.60
20526;DHT22;10421;49.142;9.232;2022-12-18T14:42:19;6.00;54.90
20526;DHT22;10421;49.142;9.232;2022-12-18T14:44:46;5.90;55.20
20526;DHT22;10421;49.142;9.232;2022-12-18T14:47:15;5.80;55.40
20526;DHT22;10421;49.142;9.232;2022-12-18T14:49:43;5.70;55.60
20526;DHT22;10421;49.142;9.232;2022-12-18T14:52:20;5.70;55.80
20526;DHT22;10421;49.142;9.232;2022-12-18T14:54:49;5.60;55.90
20526;DHT22;10421;49.142;9.232;2022-12-18T14:57:21;5.50;56.20
20526;DHT22;10421;49.142;9.232;2022-12-18T14:59:49;5.50;56.70
20526;DHT22;10421;49.142;9.232;2022-12-18T15:02:21;5.40;56.80
20526;DHT22;10421;49.142;9.232;2022-12-18T15:04:53;5.20;56.90
20526;DHT22;10421;49.142;9.232;2022-12-18T15:07:25;5.20;57.00
20526;DHT22;10421;49.142;9.232;2022-12-18T15:10:09;5.20;57.20
20526;DHT22;10421;49.142;9.232;2022-12-18T15:12:40;5.10;57.50
20526;DHT22;10421;49.142;9.232;2022-12-18T15:18:13;4.90;58.00
20526;DHT22;10421;49.142;9.232;2022-12-18T15:20:44;4.80;58.30
20526;DHT22;10421;49.142;9.232;2022-12-18T15:23:16;4.80;58.60
20526;DHT22;10421;49.142;9.232;2022-12-18T15:25:43;4.70;58.80
20526;DHT22;10421;49.142;9.232;2022-12-18T15:28:21;4.60;59.10
20526;DHT22;10421;49.142;9.232;2022-12-18T15:31:00;4.60;59.40
20526;DHT22;10421;49.142;9.232;2022-12-18T15:33:32;4.50;59.60
20526;DHT22;10421;49.142;9.232;2022-12-18T15:36:00;4.40;60.00
20526;DHT22;10421;49.142;9.232;2022-12-18T15:38:27;4.40;60.20
20526;DHT22;10421;49.142;9.232;2022-12-18T15:40:54;4.30;60.40
20526;DHT22;10421;49.142;9.232;2022-12-18T15:43:22;4.20;61.10
20526;DHT22;10421;49.142;9.232;2022-12-18T15:46:05;4.20;61.40
20526;DHT22;10421;49.142;9.232;2022-12-18T15:48:40;4.10;61.60
20526;DHT22;10421;49.142;9.232;2022-12-18T15:51:11;4.10;61.90
20526;DHT22;10421;49.142;9.232;2022-12-18T15:53:40;4.00;62.20
20526;DHT22;10421;49.142;9.232;2022-12-18T15:56:09;4.00;62.70
20526;DHT22;10421;49.142;9.232;2022-12-18T15:58:54;3.90;63.20
20526;DHT22;10421;49.142;9.232;2022-12-18T16:01:22;3.90;64.00
20526;DHT22;10421;49.142;9.232;2022-12-18T16:03:50;3.90;64.50